sensor_id;sensor_type;location;lat;lon;timestamp;temperature;humidity
15413;DHT22;7805;49.554;7.632;2023-05-10T00:01:40;14.90;99.90
15413;DHT22;7805;49.554;7.632;2023-05-10T00:04:06;14.90;99.90
15413;DHT22;7805;49.554;7.632;2023-05-10T00:06:32;14.90;99.90
15413;DHT22;7805;49.554;7.632;2023-05-10T00:08:57;13.30;99.90
15413;DHT22;7805;49.554;7.632;2023-05-10T00:11:23;15.00;99.90
15413;DHT22;7805;49.554;7.632;2023-05-10T00:13:48;15.00;99.90
15413;DHT22;7805;49.554;7.632;2023-05-10T00:16:14;15.10;99.90
15413;DHT22;7805;49.554;7.632;2023-05-10T00:18:40;14.90;99.90
15413;DHT22;7805;49.554;7.632;2023-05-10T00:21:06;14.80;99.90
15413;DHT22;7805;49.554;7.632;2023-05-10T00:23:31;14.90;99.90
15413;DHT22;7805;49.554;7.632;2023-05-10T00:25:57;14.70;99.90
15413;DHT22;7805;49.554;7.632;2023-05-10T00:28:23;13.40;99.90
15413;DHT22;7805;49.554;7.632;2023-05-10T00:30:48;14.80;99.90
15413;DHT22;7805;49.554;7.632;2023-05-10T00:33:14;14.60;99.90
15413;DHT22;7805;49.554;7.632;2023-05-10T00:35:39;14.60;99.90
15413;DHT22;7805;49.554;7.632;2023-05-10T00:38:05;14.60;99.90
15413;DHT22;7805;49.554;7.632;2023-05-10T00:40:31;14.70;99.90
15413;DHT22;7805;49.554;7.632;2023-05-10T00:42:57;15.10;99.90
15413;DHT22;7805;49.554;7.632;2023-05-10T00:45:24;14.80;99.90
15413;DHT22;7805;49.554;7.632;2023-05-10T00:47:50;14.80;99.90
15413;DHT22;7805;49.554;7.632;2023-05-10T00:50:17;14.80;99.90
15413;DHT22;7805;49.554;7.632;2023-05-10T00:52:43;14.80;99.90
15413;DHT22;7805;49.554;7.632;2023-05-10T00:55:10;14.70;99.90
15413;DHT22;7805;49.554;7.632;2023-05-10T00:57:36;14.70;99.90
15413;DHT22;7805;49.554;7.632;2023-05-10T01:00:03;14.70;99.90
15413;DHT22;7805;49.554;7.632;2023-05-10T01:02:28;14.70;99.90
15413;DHT22;7805;49.554;7.632;2023-05-10T01:04:55;14.70;99.90
15413;DHT22;7805;49.554;7.632;2023-05-10T01:07:20;14.70;99.90
15413;DHT22;7805;49.554;7.632;2023-05-10T01:09:46;14.80;99.90
15413;DHT22;7805;49.554;7.632;2023-05-10T01:12:11;14.80;99.90
15413;DHT22;7805;49.554;7.632;2023-05-10T01:14:37;14.70;99.90
15413;DHT22;7805;49.554;7.632;2023-05-10T01:17:05;14.70;99.90
15413;DHT22;7805;49.554;7.632;2023-05-10T01:19:32;14.70;99.90
15413;DHT22;7805;49.554;7.632;2023-05-10T01:33:29;14.90;99.90
15413;DHT22;7805;49.554;7.632;2023-05-10T01:36:08;14.90;99.90
15413;DHT22;7805;49.554;7.632;2023-05-10T01:38:49;14.90;99.90
15413;DHT22;7805;49.554;7.632;2023-05-10T01:41:28;14.90;99.90
15413;DHT22;7805;49.554;7.632;2023-05-10T01:44:00;14.90;99.90
15413;DHT22;7805;49.554;7.632;2023-05-10T01:46:36;14.90;99.90
15413;DHT22;7805;49.554;7.632;2023-05-10T01:49:18;14.90;99.90
15413;DHT22;7805;49.554;7.632;2023-05-10T01:51:48;14.80;99.90
15413;DHT22;7805;49.554;7.632;2023-05-10T01:54:19;14.80;99.90
15413;DHT22;7805;49.554;7.632;2023-05-10T01:56:47;14.80;99.90
15413;DHT22;7805;49.554;7.632;2023-05-10T01:59:17;14.70;99.90
15413;DHT22;7805;49.554;7.632;2023-05-10T02:01:45;14.60;99.90
15413;DHT22;7805;49.554;7.632;2023-05-10T02:04:15;14.60;99.90
15413;DHT22;7805;49.554;7.632;2023-05-10T02:06:42;14.40;99.90
15413;DHT22;7805;49.554;7.632;2023-05-10T02:09:10;14.40;99.90
15413;DHT22;7805;49.554;7.632;2023-05-10T02:11:40;14.30;99.90
15413;DHT22;7805;49.554;7.632;2023-05-10T02:14:09;14.40;99.90
15413;DHT22;7805;49.554;7.632;2023-05-10T02:16:38;14.30;99.90
15413;DHT22;7805;49.554;7.632;2023-05-10T02:19:05;14.40;99.90
15413;DHT22;7805;49.554;7.632;2023-05-10T02:21:34;15.20;99.90
15413;DHT22;7805;49.554;7.632;2023-05-10T02:24:02;14.30;99.90
15413;DHT22;7805;49.554;7.632;2023-05-10T02:26:29;14.40;99.90
15413;DHT22;7805;49.554;7.632;2023-05-10T02:28:57;14.40;99.90
15413;DHT22;7805;49.554;7.632;2023-05-10T02:31:23;14.90;99.90
15413;DHT22;7805;49.554;7.632;2023-05-10T02:33:50;14.40;99.90
15413;DHT22;7805;49.554;7.632;2023-05-10T02:36:16;14.40;99.90
15413;DHT22;7805;49.554;7.632;2023-05-10T02:38:43;14.40;99.90
15413;DHT22;7805;49.554;7.632;2023-05-10T02:41:10;14.40;99.90
15413;DHT22;7805;49.554;7.632;2023-05-10T02:43:37;14.40;99.90
15413;DHT22;7805;49.554;7.632;2023-05-10T02:46:03;14.40;99.90
15413;DHT22;7805;49.554;7.632;2023-05-10T02:48:29;14.30;99.90
15413;DHT22;7805;49.554;7.632;2023-05-10T02:50:56;14.30;99.90
15413;DHT22;7805;49.554;7.632;2023-05-10T02:53:31;14.40;99.90
15413;DHT22;7805;49.554;7.632;2023-05-10T02:55:59;14.50;99.90
15413;DHT22;7805;49.554;7.632;2023-05-10T02:58:26;14.30;99.90
15413;DHT22;7805;49.554;7.632;2023-05-10T03:00:52;14.30;99.90
15413;DHT22;7805;49.554;7.632;2023-05-10T03:03:17;14.30;99.90
15413;DHT22;7805;49.554;7.632;2023-05-10T03:05:43;14.30;99.90
15413;DHT22;7805;49.554;7.632;2023-05-10T03:08:09;14.30;99.90
15413;DHT22;7805;49.554;7.632;2023-05-10T03:10:41;13.40;99.90
15413;DHT22;7805;49.554;7.632;2023-05-10T03:13:28;14.30;99.90
15413;DHT22;7805;49.554;7.632;2023-05-10T03:16:07;14.20;99.90
15413;DHT22;7805;49.554;7.632;2023-05-10T03:18:56;14.20;99.90
15413;DHT22;7805;49.554;7.632;2023-05-10T03:21:26;14.20;99.90
15413;DHT22;7805;49.554;7.632;2023-05-10T03:24:02;14.20;99.90
15413;DHT22;7805;49.554;7.632;2023-05-10T03:26:30;14.20;99.90
15413;DHT22;7805;49.554;7.632;2023-05-10T03:28:57;14.20;99.90
15413;DHT22;7805;49.554;7.632;2023-05-10T03:31:24;14.20;99.90
15413;DHT22;7805;49.554;7.632;2023-05-10T03:33:51;14.20;99.90
15413;DHT22;7805;49.554;7.632;2023-05-10T03:36:18;14.20;99.90
15413;DHT22;7805;49.554;7.632;2023-05-10T03:38:43;14.20;99.90
15413;DHT22;7805;49.554;7.632;2023-05-10T03:41:21;14.20;99.90
15413;DHT22;7805;49.554;7.632;2023-05-10T03:43:47;14.20;99.90
15413;DHT22;7805;49.554;7.632;2023-05-10T03:46:12;14.20;99.90
15413;DHT22;7805;49.554;7.632;2023-05-10T03:48:38;14.20;99.90
15413;DHT22;7805;49.554;7.632;2023-05-10T03:51:03;14.20;99.90
15413;DHT22;7805;49.554;7.632;2023-05-10T03:53:29;14.20;99.90
15413;DHT22;7805;49.554;7.632;2023-05-10T03:55:55;14.20;99.90
15413;DHT22;7805;49.554;7.632;2023-05-10T03:58:20;14.30;99.90
15413;DHT22;7805;49.554;7.632;2023-05-10T04:00:47;14.30;99.90
15413;DHT22;7805;49.554;7.632;2023-05-10T04:03:13;14.30;99.90
15413;DHT22;7805;49.554;7.632;2023-05-10T04:05:38;14.30;99.90
15413;DHT22;7805;49.554;7.632;2023-05-10T04:08:04;14.30;99.90
15413;DHT22;7805;49.554;7.632;2023-05-10T04:10:30;14.30;99.90
15413;DHT22;7805;49.554;7.632;2023-05-10T04:12:56;14.30;99.90
15413;DHT22;7805;49.554;7.632;2023-05-10T04:15:21;14.40;99.90
15413;DHT22;7805;49.554;7.632;2023-05-10T04:17:47;14.40;99.90
15413;DHT22;7805;49.554;7.632;2023-05-10T04:20:13;14.40;99.90
15413;DHT22;7805;49.554;7.632;2023-05-10T04:22:39;14.40;99.90
15413;DHT22;7805;49.554;7.632;2023-05-10T04:25:05;14.50;99.90
15413;DHT22;7805;49.554;7.632;2023-05-10T04:27:31;14.50;99.90
15413;DHT22;7805;49.554;7.632;2023-05-10T04:29:57;14.50;99.90
15413;DHT22;7805;49.554;7.632;2023-05-10T04:32:23;14.50;99.90
15413;DHT22;7805;49.554;7.632;2023-05-10T04:34:48;14.40;99.90
15413;DHT22;7805;49.554;7.632;2023-05-10T04:37:14;14.50;99.90
15413;DHT22;7805;49.554;7.632;2023-05-10T04:39:39;14.50;99.90
15413;DHT22;7805;49.554;7.632;2023-05-10T04:42:05;14.60;99.90
15413;DHT22;7805;49.554;7.632;2023-05-10T04:44:31;14.60;99.90
15413;DHT22;7805;49.554;7.632;2023-05-10T04:46:57;13.70;99.90
15413;DHT22;7805;49.554;7.632;2023-05-10T04:49:22;14.70;99.90
15413;DHT22;7805;49.554;7.632;2023-05-10T04:51:48;14.60;99.90
15413;DHT22;7805;49.554;7.632;2023-05-10T04:54:14;14.70;99.90
15413;DHT22;7805;49.554;7.632;2023-05-10T04:56:39;14.70;99.90
15413;DHT22;7805;49.554;7.632;2023-05-10T04:59:06;14.70;99.90
15413;DHT22;7805;49.554;7.632;2023-05-10T05:01:32;14.70;99.90
15413;DHT22;7805;49.554;7.632;2023-05-10T05:03:57;14.80;99.90
15413;DHT22;7805;49.554;7.632;2023-05-10T05:06:23;15.00;99.90
15413;DHT22;7805;49.554;7.632;2023-05-10T05:08:50;14.90;99.90
15413;DHT22;7805;49.554;7.632;2023-05-10T05:11:16;14.90;99.90
15413;DHT22;7805;49.554;7.632;2023-05-10T05:13:42;15.00;99.90
15413;DHT22;7805;49.554;7.632;2023-05-10T05:16:07;15.00;99.90
15413;DHT22;7805;49.554;7.632;2023-05-10T05:18:33;15.00;99.90
15413;DHT22;7805;49.554;7.632;2023-05-10T05:20:58;15.10;99.90
15413;DHT22;7805;49.554;7.632;2023-05-10T05:23:24;14.90;99.90
15413;DHT22;7805;49.554;7.632;2023-05-10T05:25:51;14.90;99.90
15413;DHT22;7805;49.554;7.632;2023-05-10T05:28:17;14.90;99.90
15413;DHT22;7805;49.554;7.632;2023-05-10T05:30:43;14.80;99.90
15413;DHT22;7805;49.554;7.632;2023-05-10T05:33:09;14.90;99.90
15413;DHT22;7805;49.554;7.632;2023-05-10T05:35:34;14.90;99.90
15413;DHT22;7805;49.554;7.632;2023-05-10T05:38:00;15.00;99.90
15413;DHT22;7805;49.554;7.632;2023-05-10T05:40:25;15.10;99.90
15413;DHT22;7805;49.554;7.632;2023-05-10T05:42:51;15.40;99.90
15413;DHT22;7805;49.554;7.632;2023-05-10T05:45:16;15.80;99.90
15413;DHT22;7805;49.554;7.632;2023-05-10T05:47:42;16.00;99.90
15413;DHT22;7805;49.554;7.632;2023-05-10T05:50:08;16.10;99.90
15413;DHT22;7805;49.554;7.632;2023-05-10T05:52:33;16.10;99.90
15413;DHT22;7805;49.554;7.632;2023-05-10T05:54:59;16.00;99.90
15413;DHT22;7805;49.554;7.632;2023-05-10T05:57:25;15.90;99.90
15413;DHT22;7805;49.554;7.632;2023-05-10T05:59:51;15.90;99.90
15413;DHT22;7805;49.554;7.632;2023-05-10T06:02:17;16.00;99.90
15413;DHT22;7805;49.554;7.632;2023-05-10T06:04:43;16.20;99.90
15413;DHT22;7805;49.554;7.632;2023-05-10T06:07:08;16.60;99.90
15413;DHT22;7805;49.554;7.632;2023-05-10T06:09:34;17.00;99.90
15413;DHT22;7805;49.554;7.632;2023-05-10T06:11:59;17.40;99.90
15413;DHT22;7805;49.554;7.632;2023-05-10T06:14:25;18.00;99.90
15413;DHT22;7805;49.554;7.632;2023-05-10T06:16:51;18.00;99.90
15413;DHT22;7805;49.554;7.632;2023-05-10T06:19:16;17.90;99.90
15413;DHT22;7805;49.554;7.632;2023-05-10T06:21:42;17.60;99.90
15413;DHT22;7805;49.554;7.632;2023-05-10T06:24:08;17.40;99.90
15413;DHT22;7805;49.554;7.632;2023-05-10T06:26:33;17.20;99.90
15413;DHT22;7805;49.554;7.632;2023-05-10T06:28:59;17.00;99.90
15413;DHT22;7805;49.554;7.632;2023-05-10T06:31:25;16.80;99.90
15413;DHT22;7805;49.554;7.632;2023-05-10T06:33:50;16.60;99.90
15413;DHT22;7805;49.554;7.632;2023-05-10T06:36:16;16.40;99.90
15413;DHT22;7805;49.554;7.632;2023-05-10T06:38:41;16.40;99.90
15413;DHT22;7805;49.554;7.632;2023-05-10T06:41:07;14.80;99.90
15413;DHT22;7805;49.554;7.632;2023-05-10T06:43:33;16.50;99.90
15413;DHT22;7805;49.554;7.632;2023-05-10T06:45:59;16.50;99.90
15413;DHT22;7805;49.554;7.632;2023-05-10T06:48:24;16.60;99.90
15413;DHT22;7805;49.554;7.632;2023-05-10T06:50:50;16.70;99.90
15413;DHT22;7805;49.554;7.632;2023-05-10T06:53:15;16.70;99.90
15413;DHT22;7805;49.554;7.632;2023-05-10T06:55:41;16.70;99.90
15413;DHT22;7805;49.554;7.632;2023-05-10T06:58:07;16.50;99.90
15413;DHT22;7805;49.554;7.632;2023-05-10T07:00:32;16.50;99.90
15413;DHT22;7805;49.554;7.632;2023-05-10T07:02:58;16.40;99.90
15413;DHT22;7805;49.554;7.632;2023-05-10T07:05:24;16.20;99.90
15413;DHT22;7805;49.554;7.632;2023-05-10T07:07:50;16.30;99.90
15413;DHT22;7805;49.554;7.632;2023-05-10T07:10:15;16.40;99.90
15413;DHT22;7805;49.554;7.632;2023-05-10T07:12:41;16.70;99.90
15413;DHT22;7805;49.554;7.632;2023-05-10T07:15:07;17.30;99.90
15413;DHT22;7805;49.554;7.632;2023-05-10T07:17:33;17.50;99.90
15413;DHT22;7805;49.554;7.632;2023-05-10T07:19:59;17.80;99.90
15413;DHT22;7805;49.554;7.632;2023-05-10T07:22:25;17.40;99.90
15413;DHT22;7805;49.554;7.632;2023-05-10T07:24:51;17.20;99.90
15413;DHT22;7805;49.554;7.632;2023-05-10T07:27:16;17.10;99.90
15413;DHT22;7805;49.554;7.632;2023-05-10T07:29:42;17.20;99.90
15413;DHT22;7805;49.554;7.632;2023-05-10T07:32:08;17.20;99.90
15413;DHT22;7805;49.554;7.632;2023-05-10T07:34:33;17.60;99.90
15413;DHT22;7805;49.554;7.632;2023-05-10T07:36:59;17.60;99.90
15413;DHT22;7805;49.554;7.632;2023-05-10T07:39:25;17.60;99.90
15413;DHT22;7805;49.554;7.632;2023-05-10T07:41:51;17.80;99.90
15413;DHT22;7805;49.554;7.632;2023-05-10T07:44:16;17.80;99.90
15413;DHT22;7805;49.554;7.632;2023-05-10T07:46:44;17.60;99.90
15413;DHT22;7805;49.554;7.632;2023-05-10T07:49:09;17.60;99.90
15413;DHT22;7805;49.554;7.632;2023-05-10T07:51:35;17.50;99.90
15413;DHT22;7805;49.554;7.632;2023-05-10T07:54:01;17.40;99.90
15413;DHT22;7805;49.554;7.632;2023-05-10T07:56:30;17.40;99.90
15413;DHT22;7805;49.554;7.632;2023-05-10T07:58:58;17.20;99.90
15413;DHT22;7805;49.554;7.632;2023-05-10T08:01:24;17.30;99.90
15413;DHT22;7805;49.554;7.632;2023-05-10T08:03:49;17.20;99.90
15413;DHT22;7805;49.554;7.632;2023-05-10T08:06:17;17.20;99.90
15413;DHT22;7805;49.554;7.632;2023-05-10T08:08:43;17.20;99.90
15413;DHT22;7805;49.554;7.632;2023-05-10T08:11:11;17.30;99.90
15413;DHT22;7805;49.554;7.632;2023-05-10T08:13:36;17.50;99.90
15413;DHT22;7805;49.554;7.632;2023-05-10T08:16:02;17.50;99.90
15413;DHT22;7805;49.554;7.632;2023-05-10T08:18:27;17.50;99.90
15413;DHT22;7805;49.554;7.632;2023-05-10T08:20:53;17.60;99.90
15413;DHT22;7805;49.554;7.632;2023-05-10T08:23:19;17.70;99.90
15413;DHT22;7805;49.554;7.632;2023-05-10T08:25:44;17.90;99.90
15413;DHT22;7805;49.554;7.632;2023-05-10T08:28:10;18.30;99.90
15413;DHT22;7805;49.554;7.632;2023-05-10T08:30:35;18.50;99.90
15413;DHT22;7805;49.554;7.632;2023-05-10T08:33:01;18.80;99.90
15413;DHT22;7805;49.554;7.632;2023-05-10T08:35:26;18.50;99.90
15413;DHT22;7805;49.554;7.632;2023-05-10T08:37:52;18.70;99.90
15413;DHT22;7805;49.554;7.632;2023-05-10T08:40:19;18.90;99.90
15413;DHT22;7805;49.554;7.632;2023-05-10T08:42:55;18.40;99.90
15413;DHT22;7805;49.554;7.632;2023-05-10T08:45:23;17.90;99.90
15413;DHT22;7805;49.554;7.632;2023-05-10T08:47:49;17.60;99.90
15413;DHT22;7805;49.554;7.632;2023-05-10T08:50:17;17.30;99.90
15413;DHT22;7805;49.554;7.632;2023-05-10T08:52:46;17.10;99.90
15413;DHT22;7805;49.554;7.632;2023-05-10T08:55:14;17.10;99.90
15413;DHT22;7805;49.554;7.632;2023-05-10T08:57:40;16.80;99.90
15413;DHT22;7805;49.554;7.632;2023-05-10T09:00:06;16.60;99.90
15413;DHT22;7805;49.554;7.632;2023-05-10T09:02:33;16.60;99.90
15413;DHT22;7805;49.554;7.632;2023-05-10T09:04:59;16.70;99.90
15413;DHT22;7805;49.554;7.632;2023-05-10T09:07:25;16.80;99.90
15413;DHT22;7805;49.554;7.632;2023-05-10T09:09:52;16.70;99.90
15413;DHT22;7805;49.554;7.632;2023-05-10T09:12:18;16.90;99.90
15413;DHT22;7805;49.554;7.632;2023-05-10T09:14:44;17.10;99.90
15413;DHT22;7805;49.554;7.632;2023-05-10T09:17:10;17.30;99.90
15413;DHT22;7805;49.554;7.632;2023-05-10T09:19:36;17.30;99.90
15413;DHT22;7805;49.554;7.632;2023-05-10T09:22:01;17.60;99.90
15413;DHT22;7805;49.554;7.632;2023-05-10T09:24:29;17.40;99.90
15413;DHT22;7805;49.554;7.632;2023-05-10T09:26:56;17.50;99.90
15413;DHT22;7805;49.554;7.632;2023-05-10T09:29:22;17.50;99.90
15413;DHT22;7805;49.554;7.632;2023-05-10T09:31:49;17.40;99.90
15413;DHT22;7805;49.554;7.632;2023-05-10T09:34:30;17.30;99.90
15413;DHT22;7805;49.554;7.632;2023-05-10T09:36:58;17.30;99.90
15413;DHT22;7805;49.554;7.632;2023-05-10T09:39:38;17.30;99.90
15413;DHT22;7805;49.554;7.632;2023-05-10T09:42:06;17.20;99.90
15413;DHT22;7805;49.554;7.632;2023-05-10T09:44:32;17.10;99.90
15413;DHT22;7805;49.554;7.632;2023-05-10T09:46:59;17.20;99.90
15413;DHT22;7805;49.554;7.632;2023-05-10T09:49:25;17.40;99.90
15413;DHT22;7805;49.554;7.632;2023-05-10T09:52:10;17.50;99.90
15413;DHT22;7805;49.554;7.632;2023-05-10T09:54:36;17.70;99.90
15413;DHT22;7805;49.554;7.632;2023-05-10T09:57:02;17.60;99.90
15413;DHT22;7805;49.554;7.632;2023-05-10T09:59:28;17.90;99.90
15413;DHT22;7805;49.554;7.632;2023-05-10T10:01:58;18.10;99.90
15413;DHT22;7805;49.554;7.632;2023-05-10T10:04:24;18.30;99.90
15413;DHT22;7805;49.554;7.632;2023-05-10T10:07:03;18.50;99.90
15413;DHT22;7805;49.554;7.632;2023-05-10T10:09:29;18.50;99.90
15413;DHT22;7805;49.554;7.632;2023-05-10T10:11:55;18.20;99.90
15413;DHT22;7805;49.554;7.632;2023-05-10T10:14:22;18.40;99.90
15413;DHT22;7805;49.554;7.632;2023-05-10T10:16:49;19.00;99.90
15413;DHT22;7805;49.554;7.632;2023-05-10T10:19:17;19.70;99.90
15413;DHT22;7805;49.554;7.632;2023-05-10T10:21:43;19.80;99.90
15413;DHT22;7805;49.554;7.632;2023-05-10T10:24:09;19.70;99.90
15413;DHT22;7805;49.554;7.632;2023-05-10T10:26:35;20.00;99.90
15413;DHT22;7805;49.554;7.632;2023-05-10T10:29:21;20.30;99.90
15413;DHT22;7805;49.554;7.632;2023-05-10T10:34:49;20.60;98.10
15413;DHT22;7805;49.554;7.632;2023-05-10T10:37:15;20.50;99.10
15413;DHT22;7805;49.554;7.632;2023-05-10T10:39:41;20.60;99.20
15413;DHT22;7805;49.554;7.632;2023-05-10T10:42:06;20.50;97.20
15413;DHT22;7805;49.554;7.632;2023-05-10T10:52:35;20.60;96.10
15413;DHT22;7805;49.554;7.632;2023-05-10T10:55:20;20.90;95.50
15413;DHT22;7805;49.554;7.632;2023-05-10T10:57:52;21.30;96.10
15413;DHT22;7805;49.554;7.632;2023-05-10T11:00:32;20.90;95.20
15413;DHT22;7805;49.554;7.632;2023-05-10T11:03:10;20.70;96.30
15413;DHT22;7805;49.554;7.632;2023-05-10T11:05:46;20.90;97.00
15413;DHT22;7805;49.554;7.632;2023-05-10T11:08:26;20.50;96.40
15413;DHT22;7805;49.554;7.632;2023-05-10T11:10:53;20.30;96.30
15413;DHT22;7805;49.554;7.632;2023-05-10T11:16:24;20.40;96.80
15413;DHT22;7805;49.554;7.632;2023-05-10T11:21:27;20.70;97.20
15413;DHT22;7805;49.554;7.632;2023-05-10T11:23:57;20.60;96.40
15413;DHT22;7805;49.554;7.632;2023-05-10T11:26:31;20.50;96.50
15413;DHT22;7805;49.554;7.632;2023-05-10T11:28:57;20.30;95.40
15413;DHT22;7805;49.554;7.632;2023-05-10T11:31:24;20.00;96.60
15413;DHT22;7805;49.554;7.632;2023-05-10T11:33:56;20.00;97.10
15413;DHT22;7805;49.554;7.632;2023-05-10T11:36:27;19.90;97.00
15413;DHT22;7805;49.554;7.632;2023-05-10T11:38:54;19.80;97.30
15413;DHT22;7805;49.554;7.632;2023-05-10T11:41:21;19.90;96.90
15413;DHT22;7805;49.554;7.632;2023-05-10T11:43:48;20.00;96.90
15413;DHT22;7805;49.554;7.632;2023-05-10T11:46:15;20.30;96.30
15413;DHT22;7805;49.554;7.632;2023-05-10T11:48:42;20.40;95.70
15413;DHT22;7805;49.554;7.632;2023-05-10T11:51:09;20.50;96.00
15413;DHT22;7805;49.554;7.632;2023-05-10T11:53:35;20.70;95.50
15413;DHT22;7805;49.554;7.632;2023-05-10T11:56:10;21.10;95.00
15413;DHT22;7805;49.554;7.632;2023-05-10T11:58:38;21.30;94.20
15413;DHT22;7805;49.554;7.632;2023-05-10T12:01:05;21.50;95.00
15413;DHT22;7805;49.554;7.632;2023-05-10T12:03:32;21.70;93.60
15413;DHT22;7805;49.554;7.632;2023-05-10T12:05:58;21.90;92.80
15413;DHT22;7805;49.554;7.632;2023-05-10T12:08:26;21.80;93.10
15413;DHT22;7805;49.554;7.632;2023-05-10T12:10:52;21.70;92.40
15413;DHT22;7805;49.554;7.632;2023-05-10T12:13:20;21.30;92.50
15413;DHT22;7805;49.554;7.632;2023-05-10T12:15:46;20.90;92.50
15413;DHT22;7805;49.554;7.632;2023-05-10T12:18:13;21.00;93.20
15413;DHT22;7805;49.554;7.632;2023-05-10T12:20:40;21.10;93.00
15413;DHT22;7805;49.554;7.632;2023-05-10T12:23:09;20.90;92.10
15413;DHT22;7805;49.554;7.632;2023-05-10T12:25:36;21.30;92.70
15413;DHT22;7805;49.554;7.632;2023-05-10T12:28:07;21.30;93.20
15413;DHT22;7805;49.554;7.632;2023-05-10T12:30:34;21.50;92.50
15413;DHT22;7805;49.554;7.632;2023-05-10T12:33:08;21.40;92.10
15413;DHT22;7805;49.554;7.632;2023-05-10T12:35:47;21.40;92.80
15413;DHT22;7805;49.554;7.632;2023-05-10T12:38:28;21.10;92.90
15413;DHT22;7805;49.554;7.632;2023-05-10T12:41:03;20.60;92.90
15413;DHT22;7805;49.554;7.632;2023-05-10T12:43:29;20.40;93.50
15413;DHT22;7805;49.554;7.632;2023-05-10T12:45:55;20.50;94.40
15413;DHT22;7805;49.554;7.632;2023-05-10T12:48:21;20.60;94.30
15413;DHT22;7805;49.554;7.632;2023-05-10T12:50:47;20.70;94.20
15413;DHT22;7805;49.554;7.632;2023-05-10T12:53:14;20.70;93.10
15413;DHT22;7805;49.554;7.632;2023-05-10T12:55:41;21.10;92.50
15413;DHT22;7805;49.554;7.632;2023-05-10T12:58:06;21.60;92.70
15413;DHT22;7805;49.554;7.632;2023-05-10T13:00:32;21.40;92.50
15413;DHT22;7805;49.554;7.632;2023-05-10T13:02:58;21.50;91.90
15413;DHT22;7805;49.554;7.632;2023-05-10T13:05:24;21.60;92.30
15413;DHT22;7805;49.554;7.632;2023-05-10T13:07:49;21.30;92.20
15413;DHT22;7805;49.554;7.632;2023-05-10T13:10:15;21.20;91.70
15413;DHT22;7805;49.554;7.632;2023-05-10T13:12:41;21.20;92.10
15413;DHT22;7805;49.554;7.632;2023-05-10T13:15:07;21.20;92.00
15413;DHT22;7805;49.554;7.632;2023-05-10T13:17:32;21.40;91.40
15413;DHT22;7805;49.554;7.632;2023-05-10T13:19:58;21.60;91.20
15413;DHT22;7805;49.554;7.632;2023-05-10T13:22:24;21.80;91.20
15413;DHT22;7805;49.554;7.632;2023-05-10T13:24:49;22.20;91.20
15413;DHT22;7805;49.554;7.632;2023-05-10T13:27:15;20.50;89.40
15413;DHT22;7805;49.554;7.632;2023-05-10T13:29:40;22.10;90.50
15413;DHT22;7805;49.554;7.632;2023-05-10T13:32:06;22.40;89.60
15413;DHT22;7805;49.554;7.632;2023-05-10T13:34:32;22.70;86.90
15413;DHT22;7805;49.554;7.632;2023-05-10T13:36:57;22.60;84.00
15413;DHT22;7805;49.554;7.632;2023-05-10T13:39:23;22.50;83.50
15413;DHT22;7805;49.554;7.632;2023-05-10T13:41:49;22.40;84.90
15413;DHT22;7805;49.554;7.632;2023-05-10T13:44:17;22.30;84.60
15413;DHT22;7805;49.554;7.632;2023-05-10T13:46:42;22.20;84.40
15413;DHT22;7805;49.554;7.632;2023-05-10T13:49:08;22.30;85.80
15413;DHT22;7805;49.554;7.632;2023-05-10T13:51:34;22.50;85.50
15413;DHT22;7805;49.554;7.632;2023-05-10T13:54:01;22.30;85.20
15413;DHT22;7805;49.554;7.632;2023-05-10T13:56:27;22.20;83.80
15413;DHT22;7805;49.554;7.632;2023-05-10T13:58:52;22.20;80.90
15413;DHT22;7805;49.554;7.632;2023-05-10T14:01:18;22.50;83.80
15413;DHT22;7805;49.554;7.632;2023-05-10T14:03:43;22.50;76.60
15413;DHT22;7805;49.554;7.632;2023-05-10T14:06:09;22.50;73.70
15413;DHT22;7805;49.554;7.632;2023-05-10T14:08:35;22.80;76.50
15413;DHT22;7805;49.554;7.632;2023-05-10T14:11:01;23.10;76.00
15413;DHT22;7805;49.554;7.632;2023-05-10T14:13:26;23.40;74.50
15413;DHT22;7805;49.554;7.632;2023-05-10T14:15:54;23.60;72.40
15413;DHT22;7805;49.554;7.632;2023-05-10T14:18:20;24.00;71.70
15413;DHT22;7805;49.554;7.632;2023-05-10T14:20:46;24.30;70.10
15413;DHT22;7805;49.554;7.632;2023-05-10T14:23:12;24.50;69.10
15413;DHT22;7805;49.554;7.632;2023-05-10T14:25:39;24.20;66.60
15413;DHT22;7805;49.554;7.632;2023-05-10T14:28:05;23.80;65.30
15413;DHT22;7805;49.554;7.632;2023-05-10T14:30:31;23.40;68.70
15413;DHT22;7805;49.554;7.632;2023-05-10T14:32:57;23.50;68.80
15413;DHT22;7805;49.554;7.632;2023-05-10T14:35:23;23.60;68.70
15413;DHT22;7805;49.554;7.632;2023-05-10T14:37:49;23.70;68.60
15413;DHT22;7805;49.554;7.632;2023-05-10T14:40:14;24.20;67.00
15413;DHT22;7805;49.554;7.632;2023-05-10T14:42:41;23.70;65.80
15413;DHT22;7805;49.554;7.632;2023-05-10T14:45:07;23.50;65.80
15413;DHT22;7805;49.554;7.632;2023-05-10T14:47:34;23.50;66.00
15413;DHT22;7805;49.554;7.632;2023-05-10T14:49:59;23.70;66.60
15413;DHT22;7805;49.554;7.632;2023-05-10T14:52:25;23.60;65.30
15413;DHT22;7805;49.554;7.632;2023-05-10T14:54:51;23.40;65.20
15413;DHT22;7805;49.554;7.632;2023-05-10T14:57:16;23.20;64.70
15413;DHT22;7805;49.554;7.632;2023-05-10T14:59:42;22.00;64.50
15413;DHT22;7805;49.554;7.632;2023-05-10T15:02:08;22.10;68.10
15413;DHT22;7805;49.554;7.632;2023-05-10T15:04:33;22.60;68.50
15413;DHT22;7805;49.554;7.632;2023-05-10T15:06:59;22.70;68.00
15413;DHT22;7805;49.554;7.632;2023-05-10T15:09:25;23.00;67.80
15413;DHT22;7805;49.554;7.632;2023-05-10T15:11:53;23.20;66.80
15413;DHT22;7805;49.554;7.632;2023-05-10T15:14:18;23.80;67.40
15413;DHT22;7805;49.554;7.632;2023-05-10T15:16:44;24.00;65.80
15413;DHT22;7805;49.554;7.632;2023-05-10T15:19:09;23.60;64.10
15413;DHT22;7805;49.554;7.632;2023-05-10T15:21:35;23.60;64.70
15413;DHT22;7805;49.554;7.632;2023-05-10T15:24:05;23.40;66.20
15413;DHT22;7805;49.554;7.632;2023-05-10T15:26:30;23.70;66.70
15413;DHT22;7805;49.554;7.632;2023-05-10T15:28:56;23.70;65.90
15413;DHT22;7805;49.554;7.632;2023-05-10T15:31:22;23.70;65.60
15413;DHT22;7805;49.554;7.632;2023-05-10T15:33:48;23.70;65.10
15413;DHT22;7805;49.554;7.632;2023-05-10T15:36:13;23.50;65.20
15413;DHT22;7805;49.554;7.632;2023-05-10T15:38:39;23.50;65.30
15413;DHT22;7805;49.554;7.632;2023-05-10T15:41:04;23.70;65.80
15413;DHT22;7805;49.554;7.632;2023-05-10T15:43:30;23.80;65.40
15413;DHT22;7805;49.554;7.632;2023-05-10T15:45:56;23.80;65.30
15413;DHT22;7805;49.554;7.632;2023-05-10T15:48:21;23.90;64.90
15413;DHT22;7805;49.554;7.632;2023-05-10T15:50:47;23.80;63.80
15413;DHT22;7805;49.554;7.632;2023-05-10T15:53:12;23.60;63.90
15413;DHT22;7805;49.554;7.632;2023-05-10T15:55:38;23.70;64.40
15413;DHT22;7805;49.554;7.632;2023-05-10T15:58:04;23.80;64.20
15413;DHT22;7805;49.554;7.632;2023-05-10T16:00:29;23.70;65.10
15413;DHT22;7805;49.554;7.632;2023-05-10T16:02:55;23.40;64.20
15413;DHT22;7805;49.554;7.632;2023-05-10T16:05:21;23.30;64.00
15413;DHT22;7805;49.554;7.632;2023-05-10T16:07:47;23.50;65.00
15413;DHT22;7805;49.554;7.632;2023-05-10T16:10:13;23.60;64.40
15413;DHT22;7805;49.554;7.632;2023-05-10T16:12:39;23.60;65.00